createdAt,value
2023-02-11T05:03:26.445Z,18.65
2023-02-11T05:07:29.013Z,17.52
2023-02-11T05:11:31.784Z,18.00
2023-02-11T05:15:34.322Z,18.75
2023-02-11T05:19:38.172Z,18.87
2023-02-11T05:23:41.687Z,19.30
2023-02-11T05:31:46.612Z,18.05
2023-02-11T05:35:51.108Z,18.80
2023-02-11T05:39:53.850Z,16.92
2023-02-11T05:43:56.354Z,18.37
2023-02-11T05:47:59.021Z,18.83
2023-02-11T05:52:02.957Z,17.00
2023-02-11T05:56:06.272Z,18.90
2023-02-11T06:00:10.463Z,19.08
2023-02-11T06:04:15.842Z,17.77
2023-02-11T06:08:19.700Z,18.83
2023-02-11T06:12:22.247Z,17.90
2023-02-11T06:16:24.913Z,19.23
2023-02-11T06:20:27.558Z,19.20
2023-02-11T06:24:54.720Z,20.83
2023-02-11T06:28:54.454Z,19.88
2023-02-11T06:32:57.051Z,21.03
2023-02-11T06:36:59.729Z,19.53
2023-02-11T06:41:03.670Z,19.80
2023-02-11T06:45:08.994Z,20.05
2023-02-11T06:49:11.937Z,20.92
2023-02-11T06:53:14.616Z,19.30
2023-02-11T06:57:18.530Z,19.20
2023-02-11T07:01:21.392Z,18.15
2023-02-11T07:05:24.007Z,19.83
2023-02-11T07:09:26.571Z,19.00
2023-02-11T07:13:30.414Z,20.73
2023-02-11T07:17:33.166Z,19.33
2023-02-11T07:21:35.990Z,19.52
2023-02-11T07:25:38.697Z,19.98
2023-02-11T07:29:43.572Z,20.23
2023-02-11T07:33:46.670Z,21.48
2023-02-11T07:37:49.210Z,20.75
2023-02-11T07:41:51.782Z,21.23
2023-02-11T07:45:55.676Z,18.87
2023-02-11T07:49:58.267Z,19.10
2023-02-11T07:54:01.470Z,20.57
2023-02-11T07:58:04.000Z,19.58
2023-02-11T08:02:07.914Z,19.00
2023-02-11T08:06:12.603Z,20.70
2023-02-11T08:10:27.034Z,20.77
2023-02-11T08:14:29.573Z,20.88
2023-02-11T08:18:34.270Z,21.23
2023-02-11T08:22:36.765Z,22.77
2023-02-11T08:26:39.327Z,21.25
2023-02-11T08:30:41.880Z,20.93
2023-02-11T08:34:46.072Z,21.13
2023-02-11T08:38:48.677Z,19.17
2023-02-11T08:42:51.200Z,19.30
2023-02-11T08:46:54.607Z,20.67
2023-02-11T08:55:01.055Z,21.88
2023-02-11T08:59:03.675Z,20.20
2023-02-11T09:03:06.192Z,20.80
2023-02-11T09:07:10.096Z,23.07
2023-02-11T09:11:13.324Z,21.30
2023-02-11T09:15:15.822Z,19.92
2023-02-11T09:19:19.154Z,22.90
2023-02-11T09:23:23.017Z,22.05
2023-02-11T09:27:25.557Z,22.00
2023-02-11T09:31:30.450Z,20.10
2023-02-11T09:35:34.164Z,18.95
2023-02-11T09:39:38.027Z,18.15
2023-02-11T09:43:47.050Z,20.42
2023-02-11T09:47:54.044Z,22.15
2023-02-11T09:52:02.493Z,21.55
2023-02-11T09:56:13.522Z,21.33
2023-02-11T10:00:22.676Z,24.60
2023-02-11T10:04:45.531Z,22.35
2023-02-11T10:08:58.855Z,22.75
2023-02-11T10:13:20.310Z,22.27
2023-02-11T10:17:31.666Z,25.10
2023-02-11T10:21:46.693Z,25.50
2023-02-11T10:25:54.411Z,24.98
2023-02-11T10:30:03.663Z,23.75
2023-02-11T10:34:08.793Z,24.92
2023-02-11T10:38:12.192Z,24.23
2023-02-11T10:42:15.532Z,26.83
2023-02-11T10:46:23.619Z,25.40
2023-02-11T10:50:28.197Z,24.92
2023-02-11T10:54:30.704Z,25.08
2023-02-11T10:58:37.973Z,24.60
2023-02-11T11:02:44.085Z,23.33
2023-02-11T11:06:46.738Z,24.90
2023-02-11T11:11:03.715Z,23.47
2023-02-11T11:15:22.530Z,23.50
2023-02-11T11:19:26.871Z,22.70
2023-02-11T11:23:30.819Z,20.20
2023-02-11T11:27:33.887Z,20.85
2023-02-11T11:31:46.114Z,21.10
2023-02-11T11:36:01.191Z,22.58
2023-02-11T11:40:09.578Z,21.92
2023-02-11T11:44:25.225Z,20.65
2023-02-11T11:48:32.313Z,22.33
2023-02-11T11:52:42.661Z,21.15
2023-02-11T11:56:51.999Z,21.00
2023-02-11T12:01:02.852Z,21.45
2023-02-11T12:05:12.658Z,23.75
2023-02-11T12:09:26.729Z,23.65
2023-02-11T12:13:41.710Z,27.25
2023-02-11T12:17:56.669Z,25.25
2023-02-11T12:22:10.446Z,25.27
2023-02-11T12:26:18.844Z,23.73
2023-02-11T12:30:42.735Z,21.98
2023-02-11T12:39:11.564Z,20.13
2023-02-11T12:43:24.297Z,20.48
2023-02-11T12:47:38.816Z,22.43
2023-02-11T12:51:56.536Z,20.50
2023-02-11T12:56:05.675Z,19.52
2023-02-11T13:00:18.354Z,21.17
2023-02-11T13:04:26.554Z,21.05
2023-02-11T13:08:32.905Z,20.75
2023-02-11T13:12:55.927Z,21.27
2023-02-11T13:17:05.263Z,20.10
2023-02-11T13:21:26.816Z,14.10
2023-02-11T13:25:37.153Z,10.82
2023-02-11T13:30:04.480Z,9.93
2023-02-11T13:34:28.302Z,11.25
2023-02-11T13:38:32.608Z,10.15
2023-02-11T13:42:50.640Z,10.88
2023-02-11T13:47:02.237Z,10.05
2023-02-11T13:51:08.906Z,10.70
2023-02-11T13:55:22.652Z,10.65
2023-02-11T14:04:25.374Z,10.98
2023-02-11T14:08:47.046Z,11.13
2023-02-11T14:13:18.611Z,11.48
2023-02-11T14:17:31.441Z,10.77
2023-02-11T14:21:37.740Z,11.83
2023-02-11T14:25:44.265Z,12.32
2023-02-11T14:30:14.948Z,10.60
2023-02-11T14:34:45.332Z,12.63
2023-02-11T14:38:59.676Z,11.98
2023-02-11T14:43:13.120Z,12.32
2023-02-11T14:51:24.195Z,13.40
2023-02-11T14:55:32.982Z,14.05
2023-02-11T14:59:37.037Z,12.85
2023-02-11T15:03:41.778Z,13.80
2023-02-11T15:07:46.327Z,13.10
2023-02-11T15:11:50.381Z,13.68
2023-02-11T15:15:56.711Z,14.75
2023-02-11T15:20:02.752Z,14.85
2023-02-11T15:24:21.499Z,14.50
2023-02-11T15:28:27.065Z,15.38
2023-02-11T15:32:31.011Z,16.17
2023-02-11T15:36:36.285Z,13.90
2023-02-11T15:40:39.057Z,14.73
2023-02-11T15:44:41.568Z,15.20
2023-02-11T15:48:48.988Z,14.63
2023-02-11T15:52:52.854Z,15.00
2023-02-11T15:57:00.666Z,12.93
2023-02-11T16:01:03.325Z,15.68
2023-02-11T16:05:10.296Z,14.90
2023-02-11T16:09:26.089Z,14.60
2023-02-11T16:13:30.575Z,15.35
2023-02-11T16:17:33.191Z,14.80
2023-02-11T16:21:45.286Z,14.47
2023-02-11T16:25:47.820Z,14.48
2023-02-11T16:29:51.698Z,14.57
2023-02-11T16:33:54.205Z,13.80
2023-02-11T16:37:58.344Z,15.52
2023-02-11T16:42:02.025Z,13.23
2023-02-11T16:46:05.821Z,12.52
2023-02-11T16:50:10.129Z,14.48
2023-02-11T16:54:16.607Z,15.02
2023-02-11T16:58:19.644Z,13.80
2023-02-11T17:02:25.961Z,15.07
2023-02-11T17:06:28.841Z,15.82
2023-02-11T17:10:32.824Z,14.32
2023-02-11T17:14:35.332Z,16.38
2023-02-11T17:18:39.262Z,14.23
2023-02-11T17:22:42.237Z,14.32
2023-02-11T17:26:47.442Z,14.85
2023-02-11T17:30:50.039Z,15.10
2023-02-11T17:34:53.739Z,16.17
2023-02-11T17:38:56.423Z,14.48
2023-02-11T17:43:02.210Z,15.50
2023-02-11T17:47:04.931Z,16.33
2023-02-11T17:51:22.617Z,16.50
2023-02-11T17:55:25.300Z,15.77
2023-02-11T17:59:35.334Z,15.50
2023-02-11T18:03:38.026Z,14.80
2023-02-11T18:07:40.534Z,16.60
2023-02-11T18:11:43.111Z,17.60
2023-02-11T18:15:47.057Z,15.30
2023-02-11T18:19:50.362Z,16.80
2023-02-11T18:23:53.012Z,14.48
2023-02-11T18:27:55.548Z,17.03
2023-02-11T18:31:59.434Z,17.15
2023-02-11T18:36:06.215Z,15.80
2023-02-11T18:40:11.430Z,17.00
2023-02-11T18:44:14.412Z,17.33
2023-02-11T18:48:19.278Z,16.45
2023-02-11T18:52:21.795Z,17.70
2023-02-11T18:56:27.661Z,17.80
2023-02-11T19:00:31.103Z,16.70
2023-02-11T19:08:39.684Z,17.67
2023-02-11T19:12:42.182Z,18.88
2023-02-11T19:16:46.124Z,12.40
2023-02-11T19:20:50.101Z,16.15
2023-02-11T19:24:52.655Z,18.25
2023-02-11T19:28:55.286Z,19.17
2023-02-11T19:33:00.220Z,18.33
2023-02-11T19:37:04.068Z,18.55
2023-02-11T19:41:06.587Z,18.58
2023-02-11T19:45:09.769Z,18.98
2023-02-11T19:49:15.986Z,19.35
2023-02-11T19:53:20.031Z,17.92
2023-02-11T19:57:22.599Z,18.70
2023-02-11T20:01:26.607Z,19.00
2023-02-11T20:05:31.338Z,19.42
2023-02-11T20:09:35.194Z,21.00
2023-02-11T20:13:37.839Z,18.98
2023-02-11T20:17:40.328Z,19.17
2023-02-11T20:21:44.991Z,17.85
2023-02-11T20:25:50.757Z,18.75
2023-02-11T20:29:53.681Z,18.13
2023-02-11T20:33:57.393Z,17.80
2023-02-11T20:38:00.463Z,18.88
2023-02-11T20:42:04.685Z,18.20
2023-02-11T20:46:08.327Z,13.80
2023-02-11T20:50:11.845Z,18.33
2023-02-11T20:58:18.690Z,17.05
2023-02-11T21:02:23.597Z,18.23
2023-02-11T21:06:32.575Z,19.48
2023-02-11T21:10:35.076Z,18.95
2023-02-11T21:14:38.938Z,19.40
2023-02-11T21:18:41.527Z,18.95
2023-02-11T21:22:44.009Z,19.07
2023-02-11T21:26:46.537Z,18.40
2023-02-11T21:30:51.445Z,19.90
2023-02-11T21:34:54.918Z,19.55
2023-02-11T21:38:57.820Z,19.08
2023-02-11T21:43:00.355Z,20.75
2023-02-11T21:47:04.343Z,21.27
2023-02-11T21:51:08.747Z,20.67
2023-02-11T21:55:11.370Z,20.98
2023-02-11T21:59:14.721Z,20.43
